Terminal Aerodrome Forecast
Issued by NWS Charleston, WV

Current Version | Previous Version | Graphics & Text | Print | Product List | Glossary On
Versions: 1 2 3 4 5 6 7 8 9 10 11 12 13 14 15 16 17 18 19 20 21 22 23 24 25
077
FTUS41 KRLX 141456 AAA
TAFHTS
TAF AMD
KHTS 141456Z 1415/1512 VRB03KT P6SM OVC100
      TEMPO 1415/1417 5SM -SHRA
     FM150600 00000KT P6SM BKN040
     FM150800 00000KT 4SM BR SCT040
     FM151100 00000KT 2SM BR BKN001=

USA.gov is the U.S. government's official web portal to all federal, state and local government web resources and services.